Time,TemperatureF,DewpointF,PressureIn,WindDirection,WindDirectionDegrees,WindSpeedMPH,WindSpeedGustMPH,Humidity,HourlyPrecipIn,Conditions,Clouds,dailyrainin,SoftwareType,DateUTC
2013-01-31 00:00:00,30.3,25.8,29.25,West,274,12.0,24.0,83,0.00,,---,0.00,VWS V14.00,2013-01-31 05:00:00,
2013-01-31 00:06:00,30.2,25.4,29.25,WNW,298,12.0,22.0,82,0.00,,---,0.00,VWS V14.00,2013-01-31 05:06:00,
2013-01-31 00:11:00,29.9,24.5,29.26,WNW,300,9.0,24.0,80,0.00,,---,0.00,VWS V14.00,2013-01-31 05:11:00,
2013-01-31 00:16:00,29.9,24.8,29.26,West,260,8.0,24.0,81,0.00,,---,0.00,VWS V14.00,2013-01-31 05:16:00,
2013-01-31 00:21:00,29.6,24.5,29.27,WNW,286,5.0,27.0,81,0.00,,---,0.00,VWS V14.00,2013-01-31 05:21:00,
2013-01-31 00:26:00,29.3,23.3,29.27,WNW,296,14.0,27.0,78,0.00,,---,0.00,VWS V14.00,2013-01-31 05:26:00,
2013-01-31 00:30:00,29.2,22.9,29.27,NW,306,7.0,27.0,77,0.00,,---,0.00,VWS V14.00,2013-01-31 05:30:00,
2013-01-31 00:31:00,29.1,22.8,29.27,WNW,292,15.0,21.0,77,0.00,,---,0.00,VWS V14.00,2013-01-31 05:31:00,
2013-01-31 00:36:00,28.9,22.3,29.28,NW,316,11.0,21.0,76,0.00,,---,0.00,VWS V14.00,2013-01-31 05:36:00,
2013-01-31 00:41:00,28.7,21.5,29.28,WNW,292,7.0,21.0,74,0.00,,---,0.00,VWS V14.00,2013-01-31 05:41:00,
2013-01-31 00:46:00,28.5,21.9,29.28,NW,304,5.0,21.0,76,0.00,,---,0.00,VWS V14.00,2013-01-31 05:46:00,
2013-01-31 00:51:00,28.5,21.9,29.29,WNW,292,7.0,21.0,76,0.00,,---,0.00,VWS V14.00,2013-01-31 05:51:00,
2013-01-31 00:56:00,28.4,22.4,29.29,West,276,17.0,21.0,78,0.00,,---,0.00,VWS V14.00,2013-01-31 05:56:00,
2013-01-31 01:00:00,28.4,22.4,29.29,West,274,6.0,21.0,78,0.00,,---,0.00,VWS V14.00,2013-01-31 06:00:00,
2013-01-31 01:01:00,28.4,22.7,29.29,WNW,292,6.0,15.0,79,0.00,,---,0.00,VWS V14.00,2013-01-31 06:01:00,
2013-01-31 01:06:00,28.3,23.2,29.29,West,269,12.0,20.0,81,0.00,,---,0.00,VWS V14.00,2013-01-31 06:06:00,
2013-01-31 01:11:00,28.0,22.6,29.30,West,264,18.0,24.0,80,0.00,,---,0.00,VWS V14.00,2013-01-31 06:11:00,
2013-01-31 01:16:00,27.8,22.1,29.30,WSW,246,14.0,24.0,79,0.00,,---,0.00,VWS V14.00,2013-01-31 06:16:00,
2013-01-31 01:21:00,27.7,22.0,29.30,West,281,7.0,24.0,79,0.00,,---,0.00,VWS V14.00,2013-01-31 06:21:00,
2013-01-31 01:26:00,27.6,21.6,29.31,West,278,13.0,24.0,78,0.00,,---,0.00,VWS V14.00,2013-01-31 06:26:00,
2013-01-31 01:30:00,27.6,22.0,29.31,WNW,283,10.0,24.0,79,0.00,,---,0.00,VWS V14.00,2013-01-31 06:30:00,
2013-01-31 01:31:00,27.6,22.0,29.31,WNW,283,11.0,22.0,79,0.00,,---,0.00,VWS V14.00,2013-01-31 06:31:00,
2013-01-31 01:36:00,27.2,21.3,29.31,WNW,302,13.0,24.0,78,0.00,,---,0.00,VWS V14.00,2013-01-31 06:36:00,
2013-01-31 01:41:00,27.0,21.1,29.31,WSW,237,5.0,28.0,78,0.00,,---,0.00,VWS V14.00,2013-01-31 06:41:00,
2013-01-31 01:46:00,26.9,21.3,29.32,NNW,329,6.0,28.0,79,0.00,,---,0.00,VWS V14.00,2013-01-31 06:46:00,
2013-01-31 01:51:00,26.7,20.8,29.32,WNW,292,9.0,28.0,78,0.00,,---,0.00,VWS V14.00,2013-01-31 06:51:00,
2013-01-31 01:56:00,26.3,20.1,29.33,WNW,288,9.0,28.0,77,0.00,,---,0.00,VWS V14.00,2013-01-31 06:56:00,
2013-01-31 02:00:00,26.2,20.0,29.33,West,265,11.0,28.0,77,0.00,,---,0.00,VWS V14.00,2013-01-31 07:00:00,
2013-01-31 02:01:00,26.1,19.9,29.33,WNW,282,11.0,26.0,77,0.00,,---,0.00,VWS V14.00,2013-01-31 07:01:00,
2013-01-31 02:06:00,26.1,20.2,29.33,WSW,249,11.0,26.0,78,0.00,,---,0.00,VWS V14.00,2013-01-31 07:06:00,
2013-01-31 02:11:00,26.0,19.5,29.33,WNW,286,9.0,26.0,76,0.00,,---,0.00,VWS V14.00,2013-01-31 07:11:00,
2013-01-31 02:16:00,25.9,19.4,29.34,West,265,11.0,26.0,76,0.00,,---,0.00,VWS V14.00,2013-01-31 07:16:00,
2013-01-31 02:21:00,25.7,18.9,29.34,WNW,283,9.0,26.0,75,0.00,,---,0.00,VWS V14.00,2013-01-31 07:21:00,
2013-01-31 02:26:00,25.6,18.5,29.35,WNW,297,14.0,30.0,74,0.00,,---,0.00,VWS V14.00,2013-01-31 07:26:00,
2013-01-31 02:30:00,25.5,18.4,29.35,WNW,290,12.0,30.0,74,0.00,,---,0.00,VWS V14.00,2013-01-31 07:30:00,
2013-01-31 02:31:00,25.5,18.4,29.35,West,265,8.0,18.0,74,0.00,,---,0.00,VWS V14.00,2013-01-31 07:31:00,
2013-01-31 02:36:00,25.6,18.8,29.35,WSW,248,20.0,20.0,75,0.00,,---,0.00,VWS V14.00,2013-01-31 07:36:00,
2013-01-31 02:41:00,25.5,18.7,29.36,West,267,17.0,25.0,75,0.00,,---,0.00,VWS V14.00,2013-01-31 07:41:00,
2013-01-31 02:46:00,25.4,18.9,29.36,WSW,257,6.0,27.0,76,0.00,,---,0.00,VWS V14.00,2013-01-31 07:46:00,
2013-01-31 02:51:00,25.2,18.4,29.36,West,278,15.0,27.0,75,0.00,,---,0.00,VWS V14.00,2013-01-31 07:51:00,
2013-01-31 02:56:00,24.9,18.1,29.37,WNW,284,7.0,27.0,75,0.00,,---,0.00,VWS V14.00,2013-01-31 07:56:00,
2013-01-31 03:00:00,24.9,17.8,29.37,West,277,14.0,27.0,74,0.00,,---,0.00,VWS V14.00,2013-01-31 08:00:00,
2013-01-31 03:01:00,24.8,18.3,29.37,NW,315,7.0,18.0,76,0.00,,---,0.00,VWS V14.00,2013-01-31 08:01:00,
2013-01-31 03:06:00,24.6,17.8,29.38,WNW,283,4.0,22.0,75,0.00,,---,0.00,VWS V14.00,2013-01-31 08:06:00,
2013-01-31 03:11:00,24.4,17.3,29.38,WNW,288,7.0,22.0,74,0.00,,---,0.00,VWS V14.00,2013-01-31 08:11:00,
2013-01-31 03:16:00,24.3,17.2,29.38,WNW,286,13.0,22.0,74,0.00,,---,0.00,VWS V14.00,2013-01-31 08:16:00,
2013-01-31 03:21:00,24.2,17.4,29.38,NW,306,13.0,23.0,75,0.00,,---,0.00,VWS V14.00,2013-01-31 08:21:00,
2013-01-31 03:26:00,23.9,16.8,29.39,West,276,9.0,26.0,74,0.00,,---,0.00,VWS V14.00,2013-01-31 08:26:00,
2013-01-31 03:30:00,24.0,17.2,29.39,WNW,283,15.0,26.0,75,0.00,,---,0.00,VWS V14.00,2013-01-31 08:30:00,
2013-01-31 03:31:00,24.0,17.2,29.39,WNW,285,13.0,21.0,75,0.00,,---,0.00,VWS V14.00,2013-01-31 08:31:00,
2013-01-31 03:36:00,23.9,17.1,29.39,NNW,336,6.0,22.0,75,0.00,,---,0.00,VWS V14.00,2013-01-31 08:36:00,
2013-01-31 03:41:00,23.9,16.8,29.39,WSW,256,12.0,26.0,74,0.00,,---,0.00,VWS V14.00,2013-01-31 08:41:00,
2013-01-31 03:46:00,23.8,16.7,29.40,West,263,8.0,26.0,74,0.00,,---,0.00,VWS V14.00,2013-01-31 08:46:00,
2013-01-31 03:51:00,23.7,16.6,29.40,WSW,253,18.0,26.0,74,0.00,,---,0.00,VWS V14.00,2013-01-31 08:51:00,
2013-01-31 03:56:00,23.6,16.5,29.41,NW,310,10.0,26.0,74,0.00,,---,0.00,VWS V14.00,2013-01-31 08:56:00,
2013-01-31 04:00:00,23.6,16.2,29.41,West,266,11.0,26.0,73,0.00,,---,0.00,VWS V14.00,2013-01-31 09:00:00,
2013-01-31 04:01:00,23.6,16.5,29.41,WSW,249,15.0,19.0,74,0.00,,---,0.00,VWS V14.00,2013-01-31 09:01:00,
2013-01-31 04:06:00,23.5,16.5,29.41,West,273,23.0,26.0,74,0.00,,---,0.00,VWS V14.00,2013-01-31 09:06:00,
2013-01-31 04:11:00,23.4,16.4,29.41,WNW,284,13.0,30.0,74,0.00,,---,0.00,VWS V14.00,2013-01-31 09:11:00,
2013-01-31 04:22:00,23.2,15.8,29.42,West,261,6.0,30.0,73,0.00,,---,0.00,VWS V14.00,2013-01-31 09:22:00,
2013-01-31 04:27:00,23.3,15.9,29.42,West,276,5.0,30.0,73,0.00,,---,0.00,VWS V14.00,2013-01-31 09:27:00,
2013-01-31 04:30:00,23.2,15.5,29.42,West,279,10.0,30.0,72,0.00,,---,0.00,VWS V14.00,2013-01-31 09:30:00,
2013-01-31 04:32:00,23.2,15.5,29.43,West,259,28.0,28.0,72,0.00,,---,0.00,VWS V14.00,2013-01-31 09:32:00,
2013-01-31 04:37:00,23.1,14.8,29.43,North,355,15.0,29.0,70,0.00,,---,0.00,VWS V14.00,2013-01-31 09:37:00,
2013-01-31 04:42:00,23.1,14.8,29.43,West,264,14.0,29.0,70,0.00,,---,0.00,VWS V14.00,2013-01-31 09:42:00,
2013-01-31 04:47:00,23.0,15.0,29.44,WSW,253,10.0,29.0,71,0.00,,---,0.00,VWS V14.00,2013-01-31 09:47:00,
2013-01-31 04:52:00,23.0,15.3,29.44,WNW,302,8.0,29.0,72,0.00,,---,0.00,VWS V14.00,2013-01-31 09:52:00,
2013-01-31 04:57:00,22.8,15.8,29.44,West,274,10.0,29.0,74,0.00,,---,0.00,VWS V14.00,2013-01-31 09:57:00,
2013-01-31 05:00:00,22.8,15.5,29.44,NW,306,10.0,29.0,73,0.00,,---,0.00,VWS V14.00,2013-01-31 10:00:00,
2013-01-31 05:02:00,22.9,15.2,29.45,WNW,296,11.0,23.0,72,0.00,,---,0.00,VWS V14.00,2013-01-31 10:02:00,
2013-01-31 05:07:00,22.8,15.1,29.45,NW,307,7.0,23.0,72,0.00,,---,0.00,VWS V14.00,2013-01-31 10:07:00,
2013-01-31 05:12:00,22.8,15.1,29.45,West,273,15.0,23.0,72,0.00,,---,0.00,VWS V14.00,2013-01-31 10:12:00,
2013-01-31 05:17:00,22.7,14.4,29.46,WSW,245,16.0,24.0,70,0.00,,---,0.00,VWS V14.00,2013-01-31 10:17:00,
2013-01-31 05:22:00,22.7,14.4,29.46,West,263,8.0,24.0,70,0.00,,---,0.00,VWS V14.00,2013-01-31 10:22:00,
2013-01-31 05:27:00,22.6,14.3,29.46,West,269,9.0,25.0,70,0.00,,---,0.00,VWS V14.00,2013-01-31 10:27:00,
2013-01-31 05:30:00,22.7,14.7,29.47,WNW,282,8.0,25.0,71,0.00,,---,0.00,VWS V14.00,2013-01-31 10:30:00,
2013-01-31 05:32:00,22.6,14.3,29.47,WNW,288,10.0,22.0,70,0.00,,---,0.00,VWS V14.00,2013-01-31 10:32:00,
2013-01-31 05:37:00,22.4,13.8,29.47,West,279,11.0,22.0,69,0.00,,---,0.00,VWS V14.00,2013-01-31 10:37:00,
2013-01-31 05:42:00,22.5,14.5,29.47,WNW,303,11.0,22.0,71,0.00,,---,0.00,VWS V14.00,2013-01-31 10:42:00,
2013-01-31 05:47:00,22.5,14.9,29.48,West,261,11.0,22.0,72,0.00,,---,0.00,VWS V14.00,2013-01-31 10:47:00,
2013-01-31 05:52:00,22.4,14.4,29.48,WNW,291,6.0,24.0,71,0.00,,---,0.00,VWS V14.00,2013-01-31 10:52:00,
2013-01-31 05:57:00,22.4,14.8,29.49,West,273,11.0,24.0,72,0.00,,---,0.00,VWS V14.00,2013-01-31 10:57:00,
2013-01-31 06:00:00,22.4,14.8,29.49,West,264,11.0,24.0,72,0.00,,---,0.00,VWS V14.00,2013-01-31 11:00:00,
2013-01-31 06:02:00,22.2,13.9,29.49,WNW,294,8.0,28.0,70,0.00,,---,0.00,VWS V14.00,2013-01-31 11:02:00,
2013-01-31 06:07:00,22.2,14.6,29.50,West,266,13.0,28.0,72,0.00,,---,0.00,VWS V14.00,2013-01-31 11:07:00,
2013-01-31 06:12:00,22.3,14.7,29.50,WNW,290,15.0,28.0,72,0.00,,---,0.00,VWS V14.00,2013-01-31 11:12:00,
2013-01-31 06:17:00,22.3,14.7,29.50,West,260,22.0,28.0,72,0.00,,---,0.00,VWS V14.00,2013-01-31 11:17:00,
2013-01-31 06:22:00,22.2,13.6,29.50,West,275,13.0,28.0,69,0.00,,---,0.00,VWS V14.00,2013-01-31 11:22:00,
2013-01-31 06:27:00,22.3,14.0,29.50,West,276,8.0,28.0,70,0.00,,---,0.00,VWS V14.00,2013-01-31 11:27:00,
2013-01-31 06:30:00,22.3,14.0,29.50,West,271,7.0,28.0,70,0.00,,---,0.00,VWS V14.00,2013-01-31 11:30:00,
2013-01-31 06:32:00,22.3,14.3,29.50,West,267,10.0,22.0,71,0.00,,---,0.00,VWS V14.00,2013-01-31 11:32:00,
2013-01-31 06:37:00,22.3,14.3,29.51,West,273,8.0,22.0,71,0.00,,---,0.00,VWS V14.00,2013-01-31 11:37:00,
2013-01-31 06:42:00,22.2,13.6,29.51,WSW,252,12.0,26.0,69,0.00,,---,0.00,VWS V14.00,2013-01-31 11:42:00,
2013-01-31 06:47:00,22.3,14.3,29.51,WSW,256,11.0,26.0,71,0.00,,---,0.00,VWS V14.00,2013-01-31 11:47:00,
2013-01-31 06:52:00,22.2,13.3,29.52,WNW,296,13.0,26.0,68,0.00,,---,0.00,VWS V14.00,2013-01-31 11:52:00,
2013-01-31 06:57:00,22.2,12.9,29.52,NW,312,5.0,26.0,67,0.00,,---,0.00,VWS V14.00,2013-01-31 11:57:00,
2013-01-31 07:00:00,22.2,12.9,29.52,NW,309,10.0,26.0,67,0.00,,---,0.00,VWS V14.00,2013-01-31 12:00:00,
2013-01-31 07:02:00,22.2,13.6,29.52,West,277,6.0,20.0,69,0.00,,---,0.00,VWS V14.00,2013-01-31 12:02:00,
2013-01-31 07:07:00,22.1,14.5,29.52,WNW,299,7.0,28.0,72,0.00,,---,0.00,VWS V14.00,2013-01-31 12:07:00,
2013-01-31 07:12:00,21.9,14.3,29.53,WNW,296,7.0,28.0,72,0.00,,---,0.00,VWS V14.00,2013-01-31 12:12:00,
2013-01-31 07:17:00,21.7,14.7,29.54,West,263,10.0,28.0,74,0.00,,---,0.00,VWS V14.00,2013-01-31 12:17:00,
2013-01-31 07:22:00,21.7,15.0,29.54,West,261,10.0,28.0,75,0.00,,---,0.00,VWS V14.00,2013-01-31 12:22:00,
2013-01-31 07:27:00,21.7,15.0,29.54,West,260,10.0,28.0,75,0.00,,---,0.00,VWS V14.00,2013-01-31 12:27:00,
2013-01-31 07:30:00,21.7,15.0,29.54,West,277,12.0,28.0,75,0.00,,---,0.00,VWS V14.00,2013-01-31 12:30:00,
2013-01-31 07:32:00,21.3,15.5,29.54,West,261,12.0,20.0,78,0.00,,---,0.00,VWS V14.00,2013-01-31 12:32:00,
2013-01-31 07:37:00,21.1,15.3,29.54,West,262,17.0,20.0,78,0.00,,---,0.00,VWS V14.00,2013-01-31 12:37:00,
2013-01-31 07:42:00,21.3,14.0,29.55,West,268,14.0,20.0,73,0.00,,---,0.00,VWS V14.00,2013-01-31 12:42:00,
2013-01-31 07:47:00,21.6,13.7,29.55,WSW,246,13.0,20.0,71,0.00,,---,0.00,VWS V14.00,2013-01-31 12:47:00,
2013-01-31 07:52:00,21.3,14.0,29.56,WSW,253,12.0,21.0,73,0.00,,---,0.00,VWS V14.00,2013-01-31 12:52:00,
2013-01-31 07:57:00,21.3,13.7,29.56,WSW,253,8.0,21.0,72,0.00,,---,0.00,VWS V14.00,2013-01-31 12:57:00,
2013-01-31 08:00:00,21.3,13.4,29.56,WNW,286,8.0,21.0,71,0.00,,---,0.00,VWS V14.00,2013-01-31 13:00:00,
2013-01-31 08:02:00,21.3,13.7,29.56,WNW,288,9.0,20.0,72,0.00,,---,0.00,VWS V14.00,2013-01-31 13:02:00,
2013-01-31 08:07:00,21.2,13.3,29.57,WNW,293,9.0,23.0,71,0.00,,---,0.00,VWS V14.00,2013-01-31 13:07:00,
2013-01-31 08:12:00,21.3,13.4,29.57,WSW,246,5.0,23.0,71,0.00,,---,0.00,VWS V14.00,2013-01-31 13:12:00,
2013-01-31 08:17:00,21.3,13.1,29.57,NW,325,15.0,23.0,70,0.00,,---,0.00,VWS V14.00,2013-01-31 13:17:00,
2013-01-31 08:22:00,21.3,12.4,29.57,WSW,244,13.0,24.0,68,0.00,,---,0.00,VWS V14.00,2013-01-31 13:22:00,
2013-01-31 08:27:00,21.4,12.8,29.58,WNW,299,10.0,24.0,69,0.00,,---,0.00,VWS V14.00,2013-01-31 13:27:00,
2013-01-31 08:30:00,21.4,12.5,29.58,WSW,250,6.0,24.0,68,0.00,,---,0.00,VWS V14.00,2013-01-31 13:30:00,
2013-01-31 08:32:00,21.4,12.5,29.58,WSW,237,7.0,16.0,68,0.00,,---,0.00,VWS V14.00,2013-01-31 13:32:00,
2013-01-31 08:37:00,21.3,12.4,29.58,WSW,247,15.0,21.0,68,0.00,,---,0.00,VWS V14.00,2013-01-31 13:37:00,
2013-01-31 08:42:00,21.3,11.7,29.59,WNW,285,10.0,26.0,66,0.00,,---,0.00,VWS V14.00,2013-01-31 13:42:00,
2013-01-31 08:47:00,21.3,12.1,29.59,WNW,299,10.0,26.0,67,0.00,,---,0.00,VWS V14.00,2013-01-31 13:47:00,
2013-01-31 08:52:00,21.2,12.0,29.59,West,260,17.0,26.0,67,0.00,,---,0.00,VWS V14.00,2013-01-31 13:52:00,
2013-01-31 08:57:00,21.2,11.6,29.59,WNW,283,11.0,26.0,66,0.00,,---,0.00,VWS V14.00,2013-01-31 13:57:00,
2013-01-31 09:00:00,21.2,11.6,29.60,WNW,291,14.0,26.0,66,0.00,,---,0.00,VWS V14.00,2013-01-31 14:00:00,
2013-01-31 09:02:00,21.2,12.0,29.60,West,277,12.0,20.0,67,0.00,,---,0.00,VWS V14.00,2013-01-31 14:02:00,
2013-01-31 09:07:00,21.2,12.0,29.60,NNW,331,4.0,20.0,67,0.00,,---,0.00,VWS V14.00,2013-01-31 14:07:00,
2013-01-31 09:12:00,21.2,12.0,29.60,West,271,8.0,23.0,67,0.00,,---,0.00,VWS V14.00,2013-01-31 14:12:00,
2013-01-31 09:17:00,21.2,12.0,29.60,WSW,253,5.0,23.0,67,0.00,,---,0.00,VWS V14.00,2013-01-31 14:17:00,
2013-01-31 09:22:00,21.3,12.4,29.61,West,275,9.0,23.0,68,0.00,,---,0.00,VWS V14.00,2013-01-31 14:22:00,
2013-01-31 09:27:00,21.3,12.1,29.61,WNW,294,8.0,23.0,67,0.00,,---,0.00,VWS V14.00,2013-01-31 14:27:00,
2013-01-31 09:30:00,21.3,12.1,29.61,WNW,288,14.0,23.0,67,0.00,,---,0.00,VWS V14.00,2013-01-31 14:30:00,
2013-01-31 09:32:00,21.4,12.5,29.61,West,271,12.0,13.0,68,0.00,,---,0.00,VWS V14.00,2013-01-31 14:32:00,
2013-01-31 09:37:00,21.5,12.3,29.62,NW,309,9.0,19.0,67,0.00,,---,0.00,VWS V14.00,2013-01-31 14:37:00,
2013-01-31 09:42:00,21.3,11.7,29.62,West,270,10.0,23.0,66,0.00,,---,0.00,VWS V14.00,2013-01-31 14:42:00,
2013-01-31 09:48:00,21.5,12.6,29.62,NW,326,12.0,23.0,68,0.00,,---,0.00,VWS V14.00,2013-01-31 14:48:00,
2013-01-31 09:53:00,21.4,12.5,29.62,WNW,282,10.0,23.0,68,0.00,,---,0.00,VWS V14.00,2013-01-31 14:53:00,
2013-01-31 09:58:00,21.4,12.2,29.63,NNW,329,6.0,23.0,67,0.00,,---,0.00,VWS V14.00,2013-01-31 14:58:00,
2013-01-31 10:00:00,21.4,12.2,29.63,NNW,329,6.0,23.0,67,0.00,,---,0.00,VWS V14.00,2013-01-31 15:00:00,
2013-01-31 10:03:00,21.7,12.8,29.63,West,273,5.0,20.0,68,0.00,,---,0.00,VWS V14.00,2013-01-31 15:03:00,
2013-01-31 10:08:00,22.0,12.7,29.63,West,271,12.0,20.0,67,0.00,,---,0.00,VWS V14.00,2013-01-31 15:08:00,
2013-01-31 10:13:00,22.1,12.8,29.64,WNW,290,7.0,24.0,67,0.00,,---,0.00,VWS V14.00,2013-01-31 15:13:00,
2013-01-31 10:18:00,22.3,12.3,29.64,West,263,7.0,24.0,65,0.00,,---,0.00,VWS V14.00,2013-01-31 15:18:00,
2013-01-31 10:23:00,22.1,11.1,29.64,NW,323,4.0,24.0,62,0.00,,---,0.00,VWS V14.00,2013-01-31 15:23:00,
2013-01-31 10:28:00,22.2,11.9,29.64,West,261,7.0,8.0,64,0.00,,---,0.00,VWS V14.00,2013-01-31 15:28:00,
2013-01-31 10:30:00,22.2,11.9,29.64,West,281,8.0,24.0,64,0.00,,---,0.00,VWS V14.00,2013-01-31 15:30:00,
2013-01-31 10:33:00,22.0,10.2,29.65,WNW,301,13.0,21.0,60,0.00,,---,0.00,VWS V14.00,2013-01-31 15:33:00,
2013-01-31 10:38:00,21.9,10.5,29.65,WNW,300,10.0,22.0,61,0.00,,---,0.00,VWS V14.00,2013-01-31 15:38:00,
2013-01-31 10:43:00,22.1,10.0,29.65,West,273,11.0,22.0,59,0.00,,---,0.00,VWS V14.00,2013-01-31 15:43:00,
2013-01-31 10:48:00,22.3,10.5,29.66,NW,311,12.0,22.0,60,0.00,,---,0.00,VWS V14.00,2013-01-31 15:48:00,
2013-01-31 10:53:00,22.3,10.9,29.66,WNW,286,11.0,22.0,61,0.00,,---,0.00,VWS V14.00,2013-01-31 15:53:00,
2013-01-31 10:58:00,22.3,10.9,29.66,WNW,284,7.0,7.0,61,0.00,,---,0.00,VWS V14.00,2013-01-31 15:58:00,
2013-01-31 11:00:00,22.3,10.9,29.66,WNW,288,8.0,22.0,61,0.00,,---,0.00,VWS V14.00,2013-01-31 16:00:00,
2013-01-31 11:03:00,22.0,10.2,29.67,WNW,286,8.0,22.0,60,0.00,,---,0.00,VWS V14.00,2013-01-31 16:03:00,
2013-01-31 11:08:00,22.1,10.7,29.67,WNW,290,9.0,22.0,61,0.00,,---,0.00,VWS V14.00,2013-01-31 16:08:00,
2013-01-31 11:13:00,22.1,11.4,29.67,West,277,5.0,22.0,63,0.00,,---,0.00,VWS V14.00,2013-01-31 16:13:00,
2013-01-31 11:18:00,22.2,11.5,29.67,NW,319,5.0,22.0,63,0.00,,---,0.00,VWS V14.00,2013-01-31 16:18:00,
2013-01-31 11:23:00,22.2,11.5,29.67,West,271,14.0,22.0,63,0.00,,---,0.00,VWS V14.00,2013-01-31 16:23:00,
2013-01-31 11:28:00,22.0,11.4,29.67,NW,323,18.0,20.0,63,0.00,,---,0.00,VWS V14.00,2013-01-31 16:28:00,
2013-01-31 11:30:00,22.0,11.0,29.67,NNW,329,10.0,22.0,62,0.00,,---,0.00,VWS V14.00,2013-01-31 16:30:00,
2013-01-31 11:33:00,21.9,11.2,29.67,West,269,10.0,20.0,63,0.00,,---,0.00,VWS V14.00,2013-01-31 16:33:00,
2013-01-31 11:38:00,22.3,10.9,29.67,WNW,285,6.0,23.0,61,0.00,,---,0.00,VWS V14.00,2013-01-31 16:38:00,
2013-01-31 11:43:00,22.6,10.8,29.67,WNW,283,14.0,23.0,60,0.00,,---,0.00,VWS V14.00,2013-01-31 16:43:00,
2013-01-31 11:48:00,22.3,10.9,29.67,WSW,248,13.0,23.0,61,0.00,,---,0.00,VWS V14.00,2013-01-31 16:48:00,
2013-01-31 11:53:00,22.5,10.4,29.67,West,261,8.0,23.0,59,0.00,,---,0.00,VWS V14.00,2013-01-31 16:53:00,
2013-01-31 11:58:00,22.5,10.0,29.67,WSW,254,14.0,20.0,58,0.00,,---,0.00,VWS V14.00,2013-01-31 16:58:00,
2013-01-31 12:00:00,22.5,10.0,29.67,West,271,14.0,23.0,58,0.00,,---,0.00,VWS V14.00,2013-01-31 17:00:00,
2013-01-31 12:03:00,22.6,10.8,29.68,West,267,7.0,20.0,60,0.00,,---,0.00,VWS V14.00,2013-01-31 17:03:00,
2013-01-31 12:08:00,22.6,10.4,29.68,NW,309,10.0,20.0,59,0.00,,---,0.00,VWS V14.00,2013-01-31 17:08:00,
2013-01-31 12:13:00,22.4,8.7,29.68,West,276,9.0,20.0,55,0.00,,---,0.00,VWS V14.00,2013-01-31 17:13:00,
2013-01-31 12:18:00,22.2,8.9,29.68,NNW,328,8.0,24.0,56,0.00,,---,0.00,VWS V14.00,2013-01-31 17:18:00,
2013-01-31 12:23:00,22.1,8.8,29.68,WNW,293,10.0,24.0,56,0.00,,---,0.00,VWS V14.00,2013-01-31 17:23:00,
2013-01-31 12:28:00,22.0,9.1,29.68,WNW,294,10.0,13.0,57,0.00,,---,0.00,VWS V14.00,2013-01-31 17:28:00,
2013-01-31 12:30:00,22.0,8.7,29.68,West,261,13.0,24.0,56,0.00,,---,0.00,VWS V14.00,2013-01-31 17:30:00,
2013-01-31 12:33:00,22.0,9.5,29.68,WNW,298,10.0,19.0,58,0.00,,---,0.00,VWS V14.00,2013-01-31 17:33:00,
2013-01-31 12:38:00,22.2,9.7,29.68,West,279,8.0,22.0,58,0.00,,---,0.00,VWS V14.00,2013-01-31 17:38:00,
2013-01-31 12:43:00,22.4,9.5,29.68,West,261,18.0,22.0,57,0.00,,---,0.00,VWS V14.00,2013-01-31 17:43:00,
2013-01-31 13:00:00,22.4,7.9,29.68,West,270,10.0,26.0,53,0.00,,---,0.00,VWS V14.00,2013-01-31 18:00:00,
2013-01-31 13:30:00,22.5,8.0,29.69,West,270,10.0,23.0,53,0.00,,---,0.00,VWS V14.00,2013-01-31 18:30:00,
2013-01-31 14:00:00,22.2,7.3,29.70,West,270,11.0,21.0,52,0.00,,---,0.00,VWS V14.00,2013-01-31 19:00:00,
2013-01-31 14:30:00,22.6,8.1,29.71,WNW,292,10.0,21.0,53,0.00,,---,0.00,VWS V14.00,2013-01-31 19:30:00,
2013-01-31 15:00:00,22.2,8.5,29.72,West,270,10.0,21.0,55,0.00,,---,0.00,VWS V14.00,2013-01-31 20:00:00,
2013-01-31 15:30:00,21.3,9.2,29.74,West,270,9.0,21.0,59,0.00,,---,0.00,VWS V14.00,2013-01-31 20:30:00,
2013-01-31 16:11:00,20.7,10.5,29.76,West,263,7.0,11.0,64,0.00,,---,0.00,VWS V14.00,2013-01-31 21:11:00,
2013-01-31 16:16:00,21.0,10.4,29.76,West,272,10.0,12.0,63,0.00,,---,0.00,VWS V14.00,2013-01-31 21:16:00,
2013-01-31 16:21:00,21.1,11.5,29.76,West,271,7.0,18.0,66,0.00,,---,0.00,VWS V14.00,2013-01-31 21:21:00,
2013-01-31 16:26:00,20.3,13.4,29.77,NW,310,7.0,18.0,74,0.00,,---,0.00,VWS V14.00,2013-01-31 21:26:00,
2013-01-31 16:30:00,20.2,13.6,29.77,West,275,6.0,18.0,75,0.00,,---,0.00,VWS V14.00,2013-01-31 21:30:00,
2013-01-31 16:31:00,20.2,13.6,29.77,WSW,255,12.0,13.0,75,0.00,,---,0.00,VWS V14.00,2013-01-31 21:31:00,
2013-01-31 16:36:00,20.3,12.4,29.77,WNW,297,5.0,14.0,71,0.00,,---,0.00,VWS V14.00,2013-01-31 21:36:00,
2013-01-31 16:41:00,20.4,11.9,29.77,West,271,12.0,14.0,69,0.00,,---,0.00,VWS V14.00,2013-01-31 21:41:00,
2013-01-31 16:46:00,20.4,10.2,29.77,WSW,251,10.0,20.0,64,0.00,,---,0.00,VWS V14.00,2013-01-31 21:46:00,
2013-01-31 16:51:00,20.6,9.7,29.77,WNW,294,5.0,20.0,62,0.00,,---,0.00,VWS V14.00,2013-01-31 21:51:00,
2013-01-31 16:56:00,20.6,9.3,29.78,West,269,4.0,23.0,61,0.00,,---,0.00,VWS V14.00,2013-01-31 21:56:00,
2013-01-31 17:00:00,20.6,9.3,29.78,WNW,301,7.0,23.0,61,0.00,,---,0.00,VWS V14.00,2013-01-31 22:00:00,
2013-01-31 17:01:00,20.6,8.9,29.78,NNW,340,7.0,23.0,60,0.00,,---,0.00,VWS V14.00,2013-01-31 22:01:00,
2013-01-31 17:07:00,20.6,9.7,29.78,NW,310,5.0,23.0,62,0.00,,---,0.00,VWS V14.00,2013-01-31 22:07:00,
2013-01-31 17:12:00,20.5,9.9,29.79,West,267,6.0,23.0,63,0.00,,---,0.00,VWS V14.00,2013-01-31 22:12:00,
2013-01-31 17:17:00,20.5,9.6,29.79,WNW,289,4.0,23.0,62,0.00,,---,0.00,VWS V14.00,2013-01-31 22:17:00,
2013-01-31 17:22:00,20.5,12.0,29.79,WNW,291,5.0,23.0,69,0.00,,---,0.00,VWS V14.00,2013-01-31 22:22:00,
2013-01-31 17:27:00,20.1,12.2,29.79,NW,318,6.0,23.0,71,0.00,,---,0.00,VWS V14.00,2013-01-31 22:27:00,
2013-01-31 17:30:00,20.0,12.1,29.79,West,269,10.0,23.0,71,0.00,,---,0.00,VWS V14.00,2013-01-31 22:30:00,
2013-01-31 17:32:00,19.9,12.0,29.80,WNW,292,6.0,20.0,71,0.00,,---,0.00,VWS V14.00,2013-01-31 22:32:00,
2013-01-31 17:37:00,19.8,11.3,29.80,West,274,7.0,20.0,69,0.00,,---,0.00,VWS V14.00,2013-01-31 22:37:00,
2013-01-31 17:42:00,19.7,10.9,29.80,NW,323,6.0,20.0,68,0.00,,---,0.00,VWS V14.00,2013-01-31 22:42:00,
2013-01-31 17:47:00,19.7,10.9,29.80,West,281,5.0,20.0,68,0.00,,---,0.00,VWS V14.00,2013-01-31 22:47:00,
2013-01-31 17:52:00,19.8,9.9,29.80,West,263,7.0,20.0,65,0.00,,---,0.00,VWS V14.00,2013-01-31 22:52:00,
2013-01-31 17:57:00,19.7,9.9,29.80,West,279,14.0,20.0,65,0.00,,---,0.00,VWS V14.00,2013-01-31 22:57:00,
2013-01-31 18:00:00,19.7,9.5,29.81,WNW,293,3.0,20.0,64,0.00,,---,0.00,VWS V14.00,2013-01-31 23:00:00,
2013-01-31 18:02:00,19.7,9.5,29.81,WNW,282,8.0,10.0,64,0.00,,---,0.00,VWS V14.00,2013-01-31 23:02:00,
2013-01-31 18:07:00,19.7,9.5,29.81,WNW,303,13.0,16.0,64,0.00,,---,0.00,VWS V14.00,2013-01-31 23:07:00,
2013-01-31 18:12:00,19.7,8.4,29.81,West,273,14.0,18.0,61,0.00,,---,0.00,VWS V14.00,2013-01-31 23:12:00,
2013-01-31 18:17:00,19.6,9.1,29.81,WNW,291,11.0,18.0,63,0.00,,---,0.00,VWS V14.00,2013-01-31 23:17:00,
2013-01-31 18:22:00,19.5,9.0,29.81,WNW,298,14.0,18.0,63,0.00,,---,0.00,VWS V14.00,2013-01-31 23:22:00,
2013-01-31 18:27:00,19.4,9.9,29.82,West,270,5.0,18.0,66,0.00,,---,0.00,VWS V14.00,2013-01-31 23:27:00,
2013-01-31 18:30:00,19.4,9.9,29.82,West,275,4.0,18.0,66,0.00,,---,0.00,VWS V14.00,2013-01-31 23:30:00,
2013-01-31 18:32:00,19.3,10.5,29.82,West,279,4.0,13.0,68,0.00,,---,0.00,VWS V14.00,2013-01-31 23:32:00,
2013-01-31 18:37:00,19.2,11.0,29.82,West,268,6.0,16.0,70,0.00,,---,0.00,VWS V14.00,2013-01-31 23:37:00,
2013-01-31 18:42:00,19.1,11.3,29.83,West,273,9.0,17.0,71,0.00,,---,0.00,VWS V14.00,2013-01-31 23:42:00,
2013-01-31 18:47:00,19.0,11.2,29.83,WSW,253,13.0,17.0,71,0.00,,---,0.00,VWS V14.00,2013-01-31 23:47:00,
2013-01-31 18:52:00,19.0,11.5,29.83,West,261,13.0,17.0,72,0.00,,---,0.00,VWS V14.00,2013-01-31 23:52:00,
2013-01-31 18:57:00,18.9,11.1,29.83,WNW,292,3.0,17.0,71,0.00,,---,0.00,VWS V14.00,2013-01-31 23:57:00,
2013-01-31 19:00:00,18.9,11.1,29.83,West,269,4.0,17.0,71,0.00,,---,0.00,VWS V14.00,2013-02-01 00:00:00,
2013-01-31 19:02:00,19.0,11.2,29.83,WNW,282,10.0,15.0,71,0.00,,---,0.00,VWS V14.00,2013-02-01 00:02:00,
2013-01-31 19:07:00,19.0,10.8,29.83,West,267,6.0,15.0,70,0.00,,---,0.00,VWS V14.00,2013-02-01 00:07:00,
2013-01-31 19:12:00,19.0,11.2,29.84,West,269,10.0,15.0,71,0.00,,---,0.00,VWS V14.00,2013-02-01 00:12:00,
2013-01-31 19:17:00,18.9,11.1,29.84,West,276,4.0,15.0,71,0.00,,---,0.00,VWS V14.00,2013-02-01 00:17:00,
2013-01-31 19:22:00,18.8,11.3,29.84,WSW,257,10.0,15.0,72,0.00,,---,0.00,VWS V14.00,2013-02-01 00:22:00,
2013-01-31 19:27:00,18.7,11.2,29.85,WNW,288,9.0,15.0,72,0.00,,---,0.00,VWS V14.00,2013-02-01 00:27:00,
2013-01-31 19:30:00,18.7,11.2,29.85,WSW,258,10.0,15.0,72,0.00,,---,0.00,VWS V14.00,2013-02-01 00:30:00,
2013-01-31 19:32:00,18.7,11.2,29.85,West,267,8.0,14.0,72,0.00,,---,0.00,VWS V14.00,2013-02-01 00:32:00,
2013-01-31 19:37:00,18.6,11.1,29.85,West,259,6.0,14.0,72,0.00,,---,0.00,VWS V14.00,2013-02-01 00:37:00,
2013-01-31 19:42:00,18.6,11.1,29.85,WSW,257,5.0,14.0,72,0.00,,---,0.00,VWS V14.00,2013-02-01 00:42:00,
2013-01-31 19:47:00,18.7,11.2,29.85,WSW,254,12.0,14.0,72,0.00,,---,0.00,VWS V14.00,2013-02-01 00:47:00,
2013-01-31 19:52:00,18.6,11.1,29.86,West,276,6.0,18.0,72,0.00,,---,0.00,VWS V14.00,2013-02-01 00:52:00,
2013-01-31 19:57:00,18.5,11.3,29.86,NW,314,8.0,18.0,73,0.00,,---,0.00,VWS V14.00,2013-02-01 00:57:00,
2013-01-31 20:00:00,18.5,11.3,29.86,West,269,11.0,18.0,73,0.00,,---,0.00,VWS V14.00,2013-02-01 01:00:00,
2013-01-31 20:02:00,18.5,11.3,29.86,West,270,5.0,14.0,73,0.00,,---,0.00,VWS V14.00,2013-02-01 01:02:00,
2013-01-31 20:07:00,18.5,11.3,29.86,WNW,288,6.0,14.0,73,0.00,,---,0.00,VWS V14.00,2013-02-01 01:07:00,
2013-01-31 20:12:00,18.4,11.2,29.86,West,275,8.0,14.0,73,0.00,,---,0.00,VWS V14.00,2013-02-01 01:12:00,
2013-01-31 20:17:00,18.3,11.1,29.86,West,261,12.0,14.0,73,0.00,,---,0.00,VWS V14.00,2013-02-01 01:17:00,
2013-01-31 20:22:00,18.3,11.4,29.86,WNW,282,7.0,17.0,74,0.00,,---,0.00,VWS V14.00,2013-02-01 01:22:00,
2013-01-31 20:27:00,18.2,11.6,29.87,WNW,285,4.0,17.0,75,0.00,,---,0.00,VWS V14.00,2013-02-01 01:27:00,
2013-01-31 20:30:00,18.2,11.6,29.87,West,269,7.0,17.0,75,0.00,,---,0.00,VWS V14.00,2013-02-01 01:30:00,
2013-01-31 20:32:00,18.2,11.6,29.87,West,265,6.0,14.0,75,0.00,,---,0.00,VWS V14.00,2013-02-01 01:32:00,
2013-01-31 20:37:00,18.2,11.9,29.87,West,267,5.0,14.0,76,0.00,,---,0.00,VWS V14.00,2013-02-01 01:37:00,
2013-01-31 20:42:00,18.2,11.9,29.87,WNW,294,7.0,19.0,76,0.00,,---,0.00,VWS V14.00,2013-02-01 01:42:00,
2013-01-31 20:47:00,18.1,11.8,29.87,West,270,11.0,19.0,76,0.00,,---,0.00,VWS V14.00,2013-02-01 01:47:00,
2013-01-31 20:52:00,18.2,11.9,29.87,West,271,5.0,19.0,76,0.00,,---,0.00,VWS V14.00,2013-02-01 01:52:00,
2013-01-31 20:57:00,18.1,11.5,29.87,West,269,7.0,19.0,75,0.00,,---,0.00,VWS V14.00,2013-02-01 01:57:00,
2013-01-31 21:00:00,18.1,11.5,29.87,WNW,293,5.0,19.0,75,0.00,,---,0.00,VWS V14.00,2013-02-01 02:00:00,
2013-01-31 21:02:00,18.1,11.8,29.88,West,260,14.0,19.0,76,0.00,,---,0.00,VWS V14.00,2013-02-01 02:02:00,
2013-01-31 21:07:00,18.0,11.7,29.88,West,267,4.0,19.0,76,0.00,,---,0.00,VWS V14.00,2013-02-01 02:07:00,
2013-01-31 21:12:00,18.0,12.0,29.88,West,266,7.0,19.0,77,0.00,,---,0.00,VWS V14.00,2013-02-01 02:12:00,
2013-01-31 21:17:00,17.9,12.2,29.88,West,267,5.0,19.0,78,0.00,,---,0.00,VWS V14.00,2013-02-01 02:17:00,
2013-01-31 21:22:00,17.7,12.3,29.89,West,259,5.0,19.0,79,0.00,,---,0.00,VWS V14.00,2013-02-01 02:22:00,
2013-01-31 21:27:00,17.7,12.3,29.89,WSW,244,7.0,19.0,79,0.00,,---,0.00,VWS V14.00,2013-02-01 02:27:00,
2013-01-31 21:30:00,17.7,12.3,29.89,West,261,6.0,19.0,79,0.00,,---,0.00,VWS V14.00,2013-02-01 02:30:00,
2013-01-31 21:32:00,17.7,12.3,29.89,West,277,4.0,11.0,79,0.00,,---,0.00,VWS V14.00,2013-02-01 02:32:00,
2013-01-31 21:37:00,17.8,12.4,29.89,WSW,240,7.0,13.0,79,0.00,,---,0.00,VWS V14.00,2013-02-01 02:37:00,
2013-01-31 21:42:00,17.8,12.4,29.89,WSW,251,6.0,13.0,79,0.00,,---,0.00,VWS V14.00,2013-02-01 02:42:00,
2013-01-31 21:47:00,17.8,12.4,29.89,West,275,5.0,13.0,79,0.00,,---,0.00,VWS V14.00,2013-02-01 02:47:00,
2013-01-31 21:52:00,17.8,12.1,29.90,West,268,4.0,13.0,78,0.00,,---,0.00,VWS V14.00,2013-02-01 02:52:00,
2013-01-31 21:57:00,17.8,12.1,29.90,WNW,284,7.0,14.0,78,0.00,,---,0.00,VWS V14.00,2013-02-01 02:57:00,
2013-01-31 22:00:00,17.8,12.1,29.90,WNW,284,7.0,14.0,78,0.00,,---,0.00,VWS V14.00,2013-02-01 03:00:00,
2013-01-31 22:03:00,17.8,12.1,29.90,West,268,11.0,14.0,78,0.00,,---,0.00,VWS V14.00,2013-02-01 03:03:00,
2013-01-31 22:08:00,17.8,12.1,29.90,NNW,344,5.0,16.0,78,0.00,,---,0.00,VWS V14.00,2013-02-01 03:08:00,
2013-01-31 22:13:00,17.7,11.7,29.90,NW,309,7.0,16.0,77,0.00,,---,0.00,VWS V14.00,2013-02-01 03:13:00,
2013-01-31 22:18:00,17.7,11.7,29.90,West,263,5.0,16.0,77,0.00,,---,0.00,VWS V14.00,2013-02-01 03:18:00,
2013-01-31 22:23:00,17.8,11.8,29.90,WNW,300,6.0,16.0,77,0.00,,---,0.00,VWS V14.00,2013-02-01 03:23:00,
2013-01-31 22:28:00,17.7,11.4,29.90,West,281,6.0,7.0,76,0.00,,---,0.00,VWS V14.00,2013-02-01 03:28:00,
2013-01-31 22:30:00,17.8,11.5,29.90,West,274,7.0,16.0,76,0.00,,---,0.00,VWS V14.00,2013-02-01 03:30:00,
2013-01-31 22:33:00,17.7,11.4,29.90,WNW,293,5.0,12.0,76,0.00,,---,0.00,VWS V14.00,2013-02-01 03:33:00,
2013-01-31 22:38:00,17.8,11.8,29.90,West,273,6.0,12.0,77,0.00,,---,0.00,VWS V14.00,2013-02-01 03:38:00,
2013-01-31 22:43:00,17.8,11.5,29.91,WSW,249,7.0,13.0,76,0.00,,---,0.00,VWS V14.00,2013-02-01 03:43:00,
2013-01-31 22:48:00,17.9,11.6,29.91,West,275,4.0,16.0,76,0.00,,---,0.00,VWS V14.00,2013-02-01 03:48:00,
2013-01-31 22:53:00,17.9,11.6,29.91,West,281,3.0,16.0,76,0.00,,---,0.00,VWS V14.00,2013-02-01 03:53:00,
2013-01-31 22:58:00,17.9,11.6,29.91,West,269,6.0,6.0,76,0.00,,---,0.00,VWS V14.00,2013-02-01 03:58:00,
2013-01-31 23:00:00,17.9,11.6,29.91,WNW,292,6.0,16.0,76,0.00,,---,0.00,VWS V14.00,2013-02-01 04:00:00,
2013-01-31 23:03:00,17.8,11.5,29.91,WNW,289,4.0,14.0,76,0.00,,---,0.00,VWS V14.00,2013-02-01 04:03:00,
2013-01-31 23:08:00,17.8,11.5,29.91,West,268,4.0,14.0,76,0.00,,---,0.00,VWS V14.00,2013-02-01 04:08:00,
2013-01-31 23:13:00,17.7,11.4,29.91,West,279,7.0,14.0,76,0.00,,---,0.00,VWS V14.00,2013-02-01 04:13:00,
2013-01-31 23:18:00,17.7,11.4,29.92,NW,322,7.0,14.0,76,0.00,,---,0.00,VWS V14.00,2013-02-01 04:18:00,
2013-01-31 23:23:00,17.7,11.7,29.92,West,272,3.0,14.0,77,0.00,,---,0.00,VWS V14.00,2013-02-01 04:23:00,
2013-01-31 23:28:00,17.7,11.7,29.92,West,281,10.0,10.0,77,0.00,,---,0.00,VWS V14.00,2013-02-01 04:28:00,
2013-01-31 23:30:00,17.7,11.7,29.92,WNW,298,8.0,14.0,77,0.00,,---,0.00,VWS V14.00,2013-02-01 04:30:00,
2013-01-31 23:33:00,17.7,11.7,29.92,WNW,283,1.0,11.0,77,0.00,,---,0.00,VWS V14.00,2013-02-01 04:33:00,
2013-01-31 23:38:00,17.8,11.5,29.92,NW,306,4.0,11.0,76,0.00,,---,0.00,VWS V14.00,2013-02-01 04:38:00,
2013-01-31 23:43:00,17.8,11.8,29.92,West,265,9.0,11.0,77,0.00,,---,0.00,VWS V14.00,2013-02-01 04:43:00,
2013-01-31 23:48:00,17.7,11.4,29.92,West,281,5.0,13.0,76,0.00,,---,0.00,VWS V14.00,2013-02-01 04:48:00,
2013-01-31 23:53:00,17.7,11.4,29.92,WNW,285,7.0,15.0,76,0.00,,---,0.00,VWS V14.00,2013-02-01 04:53:00,
2013-01-31 23:58:00,17.6,11.3,29.92,WSW,256,6.0,6.0,76,0.00,,---,0.00,VWS V14.00,2013-02-01 04:58:00,